sensor_id;sensor_type;location;lat;lon;timestamp;temperature;humidity
38090;DHT22;23904;52.322;10.232;2023-05-07T00:01:06;11.00;99.90
38090;DHT22;23904;52.322;10.232;2023-05-07T00:03:31;10.90;99.90
38090;DHT22;23904;52.322;10.232;2023-05-07T00:05:58;10.90;99.90
38090;DHT22;23904;52.322;10.232;2023-05-07T00:08:23;10.90;99.90
38090;DHT22;23904;52.322;10.232;2023-05-07T00:10:49;10.90;99.90
38090;DHT22;23904;52.322;10.232;2023-05-07T00:13:15;10.90;99.90
38090;DHT22;23904;52.322;10.232;2023-05-07T00:15:41;10.90;99.90
38090;DHT22;23904;52.322;10.232;2023-05-07T00:18:07;10.90;99.90
38090;DHT22;23904;52.322;10.232;2023-05-07T00:20:33;10.80;99.90
38090;DHT22;23904;52.322;10.232;2023-05-07T00:22:58;10.80;99.90
38090;DHT22;23904;52.322;10.232;2023-05-07T00:25:24;10.80;99.90
38090;DHT22;23904;52.322;10.232;2023-05-07T00:27:49;10.80;99.90
38090;DHT22;23904;52.322;10.232;2023-05-07T00:30:15;10.80;99.90
38090;DHT22;23904;52.322;10.232;2023-05-07T00:32:41;10.90;99.90
38090;DHT22;23904;52.322;10.232;2023-05-07T00:35:07;10.80;99.90
38090;DHT22;23904;52.322;10.232;2023-05-07T00:37:33;10.80;99.90
38090;DHT22;23904;52.322;10.232;2023-05-07T00:39:58;10.70;99.90
38090;DHT22;23904;52.322;10.232;2023-05-07T00:42:24;10.70;99.90
38090;DHT22;23904;52.322;10.232;2023-05-07T00:44:50;10.80;99.90
38090;DHT22;23904;52.322;10.232;2023-05-07T00:47:16;10.80;99.90
38090;DHT22;23904;52.322;10.232;2023-05-07T00:49:43;10.80;99.90
38090;DHT22;23904;52.322;10.232;2023-05-07T00:52:14;10.80;99.90
38090;DHT22;23904;52.322;10.232;2023-05-07T00:54:42;10.70;99.90
38090;DHT22;23904;52.322;10.232;2023-05-07T00:57:09;10.70;99.90
38090;DHT22;23904;52.322;10.232;2023-05-07T00:59:36;10.70;99.90
38090;DHT22;23904;52.322;10.232;2023-05-07T01:02:03;10.70;99.90
38090;DHT22;23904;52.322;10.232;2023-05-07T01:04:29;10.80;99.90
38090;DHT22;23904;52.322;10.232;2023-05-07T01:06:55;10.80;99.90
38090;DHT22;23904;52.322;10.232;2023-05-07T01:09:23;10.80;99.90
38090;DHT22;23904;52.322;10.232;2023-05-07T01:11:50;10.80;99.90
38090;DHT22;23904;52.322;10.232;2023-05-07T01:14:17;10.80;99.90
38090;DHT22;23904;52.322;10.232;2023-05-07T01:16:42;10.80;99.90
38090;DHT22;23904;52.322;10.232;2023-05-07T01:19:09;10.80;99.90
38090;DHT22;23904;52.322;10.232;2023-05-07T01:21:39;10.80;99.90
38090;DHT22;23904;52.322;10.232;2023-05-07T01:24:13;10.90;99.90
38090;DHT22;23904;52.322;10.232;2023-05-07T01:26:39;10.80;99.90
38090;DHT22;23904;52.322;10.232;2023-05-07T01:29:05;10.80;99.90
38090;DHT22;23904;52.322;10.232;2023-05-07T01:31:32;10.80;99.90
38090;DHT22;23904;52.322;10.232;2023-05-07T01:33:59;10.80;99.90
38090;DHT22;23904;52.322;10.232;2023-05-07T01:36:27;10.80;99.90
38090;DHT22;23904;52.322;10.232;2023-05-07T01:38:55;10.80;99.90
38090;DHT22;23904;52.322;10.232;2023-05-07T01:41:23;10.80;99.90
38090;DHT22;23904;52.322;10.232;2023-05-07T01:43:50;10.80;99.90
38090;DHT22;23904;52.322;10.232;2023-05-07T01:46:18;10.80;99.90
38090;DHT22;23904;52.322;10.232;2023-05-07T01:48:45;10.80;99.90
38090;DHT22;23904;52.322;10.232;2023-05-07T01:51:11;10.80;99.90
38090;DHT22;23904;52.322;10.232;2023-05-07T01:53:38;10.80;99.90
38090;DHT22;23904;52.322;10.232;2023-05-07T01:56:04;10.80;99.90
38090;DHT22;23904;52.322;10.232;2023-05-07T01:58:30;10.80;99.90
38090;DHT22;23904;52.322;10.232;2023-05-07T02:00:56;10.80;99.90
38090;DHT22;23904;52.322;10.232;2023-05-07T02:03:21;10.80;99.90
38090;DHT22;23904;52.322;10.232;2023-05-07T02:05:47;10.70;99.90
38090;DHT22;23904;52.322;10.232;2023-05-07T02:08:13;10.70;99.90
38090;DHT22;23904;52.322;10.232;2023-05-07T02:10:38;10.70;99.90
38090;DHT22;23904;52.322;10.232;2023-05-07T02:13:04;10.70;99.90
38090;DHT22;23904;52.322;10.232;2023-05-07T02:15:29;10.70;99.90
38090;DHT22;23904;52.322;10.232;2023-05-07T02:18:06;10.70;99.90
38090;DHT22;23904;52.322;10.232;2023-05-07T02:20:34;10.70;99.90
38090;DHT22;23904;52.322;10.232;2023-05-07T02:23:00;10.70;99.90
38090;DHT22;23904;52.322;10.232;2023-05-07T02:25:25;10.70;99.90
38090;DHT22;23904;52.322;10.232;2023-05-07T02:27:51;10.60;99.90
38090;DHT22;23904;52.322;10.232;2023-05-07T02:30:16;10.60;99.90
38090;DHT22;23904;52.322;10.232;2023-05-07T02:32:42;10.50;99.90
38090;DHT22;23904;52.322;10.232;2023-05-07T02:35:08;10.60;99.90
38090;DHT22;23904;52.322;10.232;2023-05-07T02:37:33;10.60;99.90
38090;DHT22;23904;52.322;10.232;2023-05-07T02:39:59;10.60;99.90
38090;DHT22;23904;52.322;10.232;2023-05-07T02:42:24;10.50;99.90
38090;DHT22;23904;52.322;10.232;2023-05-07T02:44:50;10.50;99.90
38090;DHT22;23904;52.322;10.232;2023-05-07T02:47:16;10.50;99.90
38090;DHT22;23904;52.322;10.232;2023-05-07T02:49:42;10.50;99.90
38090;DHT22;23904;52.322;10.232;2023-05-07T02:52:07;10.50;99.90
38090;DHT22;23904;52.322;10.232;2023-05-07T02:54:33;10.50;99.90
38090;DHT22;23904;52.322;10.232;2023-05-07T02:56:58;10.50;99.90
38090;DHT22;23904;52.322;10.232;2023-05-07T02:59:26;10.50;99.90
38090;DHT22;23904;52.322;10.232;2023-05-07T03:01:51;10.50;99.90
38090;DHT22;23904;52.322;10.232;2023-05-07T03:04:17;10.50;99.90
38090;DHT22;23904;52.322;10.232;2023-05-07T03:06:42;10.40;99.90
38090;DHT22;23904;52.322;10.232;2023-05-07T03:09:08;10.40;99.90
38090;DHT22;23904;52.322;10.232;2023-05-07T03:11:34;10.40;99.90
38090;DHT22;23904;52.322;10.232;2023-05-07T03:14:01;10.40;99.90
38090;DHT22;23904;52.322;10.232;2023-05-07T03:16:27;10.50;99.90
38090;DHT22;23904;52.322;10.232;2023-05-07T03:18:52;10.40;99.90
38090;DHT22;23904;52.322;10.232;2023-05-07T03:21:18;10.40;99.90
38090;DHT22;23904;52.322;10.232;2023-05-07T03:23:43;10.40;99.90
38090;DHT22;23904;52.322;10.232;2023-05-07T03:26:09;10.40;99.90
38090;DHT22;23904;52.322;10.232;2023-05-07T03:28:34;10.30;99.90
38090;DHT22;23904;52.322;10.232;2023-05-07T03:31:00;10.30;99.90
38090;DHT22;23904;52.322;10.232;2023-05-07T03:33:26;10.40;99.90
38090;DHT22;23904;52.322;10.232;2023-05-07T03:35:52;10.40;99.90
38090;DHT22;23904;52.322;10.232;2023-05-07T03:38:18;10.40;99.90
38090;DHT22;23904;52.322;10.232;2023-05-07T03:40:43;10.30;99.90
38090;DHT22;23904;52.322;10.232;2023-05-07T03:43:09;10.30;99.90
38090;DHT22;23904;52.322;10.232;2023-05-07T03:45:35;10.30;99.90
38090;DHT22;23904;52.322;10.232;2023-05-07T03:48:00;10.20;99.90
38090;DHT22;23904;52.322;10.232;2023-05-07T03:50:26;10.30;99.90
38090;DHT22;23904;52.322;10.232;2023-05-07T03:52:51;10.30;99.90
38090;DHT22;23904;52.322;10.232;2023-05-07T03:55:17;10.20;99.90
38090;DHT22;23904;52.322;10.232;2023-05-07T03:57:43;10.10;99.90
38090;DHT22;23904;52.322;10.232;2023-05-07T04:00:09;10.20;99.90
38090;DHT22;23904;52.322;10.232;2023-05-07T04:02:35;10.20;99.90
38090;DHT22;23904;52.322;10.232;2023-05-07T04:05:00;10.30;99.90
38090;DHT22;23904;52.322;10.232;2023-05-07T04:07:26;10.20;99.90
38090;DHT22;23904;52.322;10.232;2023-05-07T04:09:51;10.30;99.90
38090;DHT22;23904;52.322;10.232;2023-05-07T04:12:17;10.20;99.90
38090;DHT22;23904;52.322;10.232;2023-05-07T04:14:42;10.20;99.90
38090;DHT22;23904;52.322;10.232;2023-05-07T04:17:08;10.20;99.90
38090;DHT22;23904;52.322;10.232;2023-05-07T04:19:35;10.20;99.90
38090;DHT22;23904;52.322;10.232;2023-05-07T04:22:00;10.10;99.90
38090;DHT22;23904;52.322;10.232;2023-05-07T04:24:26;10.10;99.90
38090;DHT22;23904;52.322;10.232;2023-05-07T04:26:52;10.10;99.90
38090;DHT22;23904;52.322;10.232;2023-05-07T04:29:18;10.10;99.90
38090;DHT22;23904;52.322;10.232;2023-05-07T04:31:44;10.10;99.90
38090;DHT22;23904;52.322;10.232;2023-05-07T04:34:10;10.10;99.90
38090;DHT22;23904;52.322;10.232;2023-05-07T04:36:37;10.10;99.90
38090;DHT22;23904;52.322;10.232;2023-05-07T04:39:03;10.00;99.90
38090;DHT22;23904;52.322;10.232;2023-05-07T04:41:29;10.00;99.90
38090;DHT22;23904;52.322;10.232;2023-05-07T04:43:55;10.00;99.90
38090;DHT22;23904;52.322;10.232;2023-05-07T04:46:22;10.10;99.90
38090;DHT22;23904;52.322;10.232;2023-05-07T04:48:47;10.10;99.90
38090;DHT22;23904;52.322;10.232;2023-05-07T04:51:13;10.10;99.90
38090;DHT22;23904;52.322;10.232;2023-05-07T04:53:38;10.10;99.90
38090;DHT22;23904;52.322;10.232;2023-05-07T04:56:04;10.20;99.90
38090;DHT22;23904;52.322;10.232;2023-05-07T04:58:29;10.10;99.90
38090;DHT22;23904;52.322;10.232;2023-05-07T05:00:58;10.10;99.90
38090;DHT22;23904;52.322;10.232;2023-05-07T05:03:23;10.10;99.90
38090;DHT22;23904;52.322;10.232;2023-05-07T05:05:50;10.20;99.90
38090;DHT22;23904;52.322;10.232;2023-05-07T05:08:17;10.20;99.90
38090;DHT22;23904;52.322;10.232;2023-05-07T05:10:43;10.30;99.90
38090;DHT22;23904;52.322;10.232;2023-05-07T05:13:09;10.30;99.90
38090;DHT22;23904;52.322;10.232;2023-05-07T05:15:35;10.30;99.90
38090;DHT22;23904;52.322;10.232;2023-05-07T05:18:00;10.40;99.90
38090;DHT22;23904;52.322;10.232;2023-05-07T05:20:26;10.40;99.90
38090;DHT22;23904;52.322;10.232;2023-05-07T05:22:52;10.30;99.90
38090;DHT22;23904;52.322;10.232;2023-05-07T05:25:17;10.30;99.90
38090;DHT22;23904;52.322;10.232;2023-05-07T05:27:43;10.30;99.90
38090;DHT22;23904;52.322;10.232;2023-05-07T05:30:09;10.30;99.90
38090;DHT22;23904;52.322;10.232;2023-05-07T05:32:35;10.30;99.90
38090;DHT22;23904;52.322;10.232;2023-05-07T05:35:01;10.30;99.90
38090;DHT22;23904;52.322;10.232;2023-05-07T05:37:27;10.30;99.90
38090;DHT22;23904;52.322;10.232;2023-05-07T05:39:52;10.40;99.90
38090;DHT22;23904;52.322;10.232;2023-05-07T05:42:19;10.40;99.90
38090;DHT22;23904;52.322;10.232;2023-05-07T05:44:45;10.50;99.90
38090;DHT22;23904;52.322;10.232;2023-05-07T05:47:11;10.50;99.90
38090;DHT22;23904;52.322;10.232;2023-05-07T05:49:36;10.50;99.90
38090;DHT22;23904;52.322;10.232;2023-05-07T05:52:02;10.50;99.90
38090;DHT22;23904;52.322;10.232;2023-05-07T05:54:28;10.50;99.90
38090;DHT22;23904;52.322;10.232;2023-05-07T05:56:53;10.50;99.90
38090;DHT22;23904;52.322;10.232;2023-05-07T05:59:19;10.50;99.90
38090;DHT22;23904;52.322;10.232;2023-05-07T06:01:44;10.50;99.90
38090;DHT22;23904;52.322;10.232;2023-05-07T06:04:10;10.60;99.90
38090;DHT22;23904;52.322;10.232;2023-05-07T06:06:35;10.60;99.90
38090;DHT22;23904;52.322;10.232;2023-05-07T06:09:01;10.50;99.90
38090;DHT22;23904;52.322;10.232;2023-05-07T06:11:26;10.50;99.90
38090;DHT22;23904;52.322;10.232;2023-05-07T06:13:52;10.50;99.90
38090;DHT22;23904;52.322;10.232;2023-05-07T06:16:17;10.60;99.90
38090;DHT22;23904;52.322;10.232;2023-05-07T06:18:43;10.60;99.90
38090;DHT22;23904;52.322;10.232;2023-05-07T06:21:10;10.70;99.90
38090;DHT22;23904;52.322;10.232;2023-05-07T06:23:36;10.70;99.90
38090;DHT22;23904;52.322;10.232;2023-05-07T06:26:01;10.90;99.90
38090;DHT22;23904;52.322;10.232;2023-05-07T06:28:27;10.80;99.90
38090;DHT22;23904;52.322;10.232;2023-05-07T06:30:52;10.70;99.90
38090;DHT22;23904;52.322;10.232;2023-05-07T06:33:18;10.70;99.90
38090;DHT22;23904;52.322;10.232;2023-05-07T06:35:45;10.70;99.90
38090;DHT22;23904;52.322;10.232;2023-05-07T06:38:10;10.80;99.90
38090;DHT22;23904;52.322;10.232;2023-05-07T06:40:37;10.90;99.90
38090;DHT22;23904;52.322;10.232;2023-05-07T06:43:03;10.90;99.90
38090;DHT22;23904;52.322;10.232;2023-05-07T06:45:28;10.90;99.90
38090;DHT22;23904;52.322;10.232;2023-05-07T06:47:54;11.00;99.90
38090;DHT22;23904;52.322;10.232;2023-05-07T06:50:19;11.00;99.90
38090;DHT22;23904;52.322;10.232;2023-05-07T06:52:45;11.10;99.90
38090;DHT22;23904;52.322;10.232;2023-05-07T06:55:10;11.10;99.90
38090;DHT22;23904;52.322;10.232;2023-05-07T06:57:36;11.10;99.90
38090;DHT22;23904;52.322;10.232;2023-05-07T07:00:02;11.10;99.90
38090;DHT22;23904;52.322;10.232;2023-05-07T07:02:28;11.10;99.90
38090;DHT22;23904;52.322;10.232;2023-05-07T07:04:53;11.10;99.90
38090;DHT22;23904;52.322;10.232;2023-05-07T07:07:19;11.00;99.90
38090;DHT22;23904;52.322;10.232;2023-05-07T07:09:44;11.00;99.90
38090;DHT22;23904;52.322;10.232;2023-05-07T07:12:10;11.00;99.90
38090;DHT22;23904;52.322;10.232;2023-05-07T07:14:36;10.90;99.90
38090;DHT22;23904;52.322;10.232;2023-05-07T07:17:01;11.00;99.90
38090;DHT22;23904;52.322;10.232;2023-05-07T07:19:27;11.00;99.90
38090;DHT22;23904;52.322;10.232;2023-05-07T07:21:52;11.00;99.90
38090;DHT22;23904;52.322;10.232;2023-05-07T07:24:18;11.10;99.90
38090;DHT22;23904;52.322;10.232;2023-05-07T07:26:46;11.10;99.90
38090;DHT22;23904;52.322;10.232;2023-05-07T07:29:12;11.20;99.90
38090;DHT22;23904;52.322;10.232;2023-05-07T07:31:37;11.30;99.90
38090;DHT22;23904;52.322;10.232;2023-05-07T07:34:03;11.40;99.90
38090;DHT22;23904;52.322;10.232;2023-05-07T07:36:28;11.40;99.90
38090;DHT22;23904;52.322;10.232;2023-05-07T07:38:54;11.40;99.90
38090;DHT22;23904;52.322;10.232;2023-05-07T07:41:19;11.40;99.90
38090;DHT22;23904;52.322;10.232;2023-05-07T07:43:45;11.40;99.90
38090;DHT22;23904;52.322;10.232;2023-05-07T07:46:12;11.40;99.90
38090;DHT22;23904;52.322;10.232;2023-05-07T07:48:37;11.40;99.90
38090;DHT22;23904;52.322;10.232;2023-05-07T07:51:03;11.50;99.90
38090;DHT22;23904;52.322;10.232;2023-05-07T07:53:29;11.60;99.90
38090;DHT22;23904;52.322;10.232;2023-05-07T07:55:54;11.70;99.90
38090;DHT22;23904;52.322;10.232;2023-05-07T07:58:20;11.60;99.90
38090;DHT22;23904;52.322;10.232;2023-05-07T08:00:47;11.60;99.90
38090;DHT22;23904;52.322;10.232;2023-05-07T08:03:12;11.60;99.90
38090;DHT22;23904;52.322;10.232;2023-05-07T08:05:39;11.70;99.90
38090;DHT22;23904;52.322;10.232;2023-05-07T08:08:05;11.70;99.90
38090;DHT22;23904;52.322;10.232;2023-05-07T08:10:31;11.60;99.90
38090;DHT22;23904;52.322;10.232;2023-05-07T08:13:00;11.40;99.90
38090;DHT22;23904;52.322;10.232;2023-05-07T08:15:25;11.50;99.90
38090;DHT22;23904;52.322;10.232;2023-05-07T08:17:51;11.50;99.90
38090;DHT22;23904;52.322;10.232;2023-05-07T08:20:17;11.60;99.90
38090;DHT22;23904;52.322;10.232;2023-05-07T08:22:42;11.70;99.90
38090;DHT22;23904;52.322;10.232;2023-05-07T08:25:08;11.80;99.90
38090;DHT22;23904;52.322;10.232;2023-05-07T08:27:34;11.80;99.90
38090;DHT22;23904;52.322;10.232;2023-05-07T08:29:59;11.90;99.90
38090;DHT22;23904;52.322;10.232;2023-05-07T08:32:25;12.00;99.90
38090;DHT22;23904;52.322;10.232;2023-05-07T08:34:51;12.00;99.90
38090;DHT22;23904;52.322;10.232;2023-05-07T08:37:16;12.00;99.90
38090;DHT22;23904;52.322;10.232;2023-05-07T08:39:42;12.00;99.90
38090;DHT22;23904;52.322;10.232;2023-05-07T08:42:09;12.20;99.90
38090;DHT22;23904;52.322;10.232;2023-05-07T08:44:38;12.30;99.90
38090;DHT22;23904;52.322;10.232;2023-05-07T08:47:06;12.50;99.90
38090;DHT22;23904;52.322;10.232;2023-05-07T08:49:33;12.60;99.90
38090;DHT22;23904;52.322;10.232;2023-05-07T08:51:59;12.70;99.90
38090;DHT22;23904;52.322;10.232;2023-05-07T08:54:26;12.70;99.90
38090;DHT22;23904;52.322;10.232;2023-05-07T08:56:53;12.50;99.90
38090;DHT22;23904;52.322;10.232;2023-05-07T08:59:18;12.60;99.90
38090;DHT22;23904;52.322;10.232;2023-05-07T09:01:44;12.80;99.90
38090;DHT22;23904;52.322;10.232;2023-05-07T09:04:09;12.60;99.90
38090;DHT22;23904;52.322;10.232;2023-05-07T09:06:35;12.50;99.90
38090;DHT22;23904;52.322;10.232;2023-05-07T09:09:03;12.40;99.90
38090;DHT22;23904;52.322;10.232;2023-05-07T09:11:30;12.30;99.90
38090;DHT22;23904;52.322;10.232;2023-05-07T09:13:56;12.30;99.90
38090;DHT22;23904;52.322;10.232;2023-05-07T09:16:25;12.40;99.90
38090;DHT22;23904;52.322;10.232;2023-05-07T09:18:52;12.50;99.90
38090;DHT22;23904;52.322;10.232;2023-05-07T09:21:20;12.90;99.90
38090;DHT22;23904;52.322;10.232;2023-05-07T09:23:50;13.20;99.90
38090;DHT22;23904;52.322;10.232;2023-05-07T09:26:16;13.30;99.90
38090;DHT22;23904;52.322;10.232;2023-05-07T09:28:42;13.20;99.90
38090;DHT22;23904;52.322;10.232;2023-05-07T09:31:08;13.20;99.90
38090;DHT22;23904;52.322;10.232;2023-05-07T09:33:35;13.40;99.90
38090;DHT22;23904;52.322;10.232;2023-05-07T09:36:09;13.30;99.90
38090;DHT22;23904;52.322;10.232;2023-05-07T09:38:36;13.00;99.90
38090;DHT22;23904;52.322;10.232;2023-05-07T09:41:11;12.70;99.90
38090;DHT22;23904;52.322;10.232;2023-05-07T09:43:38;12.70;99.90
38090;DHT22;23904;52.322;10.232;2023-05-07T09:46:16;12.70;99.90
38090;DHT22;23904;52.322;10.232;2023-05-07T09:48:44;12.70;99.90
38090;DHT22;23904;52.322;10.232;2023-05-07T09:51:28;12.80;99.90
38090;DHT22;23904;52.322;10.232;2023-05-07T09:53:56;13.00;99.90
38090;DHT22;23904;52.322;10.232;2023-05-07T09:56:24;13.00;99.90
38090;DHT22;23904;52.322;10.232;2023-05-07T09:58:52;12.90;99.90
38090;DHT22;23904;52.322;10.232;2023-05-07T10:01:19;12.90;99.90
38090;DHT22;23904;52.322;10.232;2023-05-07T10:03:48;12.80;99.90
38090;DHT22;23904;52.322;10.232;2023-05-07T10:06:15;12.70;99.90
38090;DHT22;23904;52.322;10.232;2023-05-07T10:08:43;12.70;99.90
38090;DHT22;23904;52.322;10.232;2023-05-07T10:11:09;12.80;99.90
38090;DHT22;23904;52.322;10.232;2023-05-07T10:13:35;12.90;99.90
38090;DHT22;23904;52.322;10.232;2023-05-07T10:16:03;13.50;99.90
38090;DHT22;23904;52.322;10.232;2023-05-07T10:18:31;14.60;99.90
38090;DHT22;23904;52.322;10.232;2023-05-07T10:21:09;15.10;99.90
38090;DHT22;23904;52.322;10.232;2023-05-07T10:23:37;15.00;99.90
38090;DHT22;23904;52.322;10.232;2023-05-07T10:26:06;14.80;99.90
38090;DHT22;23904;52.322;10.232;2023-05-07T10:28:36;14.30;99.90
38090;DHT22;23904;52.322;10.232;2023-05-07T10:31:31;14.10;99.90
38090;DHT22;23904;52.322;10.232;2023-05-07T10:34:17;14.00;99.90
38090;DHT22;23904;52.322;10.232;2023-05-07T10:36:46;14.50;99.90
38090;DHT22;23904;52.322;10.232;2023-05-07T10:39:13;15.00;99.90
38090;DHT22;23904;52.322;10.232;2023-05-07T10:41:39;15.20;99.90
38090;DHT22;23904;52.322;10.232;2023-05-07T10:44:05;15.80;99.90
38090;DHT22;23904;52.322;10.232;2023-05-07T10:46:31;16.30;99.90
38090;DHT22;23904;52.322;10.232;2023-05-07T10:51:26;16.00;99.90
38090;DHT22;23904;52.322;10.232;2023-05-07T10:56:36;15.80;99.90
38090;DHT22;23904;52.322;10.232;2023-05-07T11:02:02;15.70;99.90
38090;DHT22;23904;52.322;10.232;2023-05-07T11:04:29;15.40;99.90
38090;DHT22;23904;52.322;10.232;2023-05-07T11:15:04;14.70;99.90
38090;DHT22;23904;52.322;10.232;2023-05-07T11:17:35;14.80;99.90
38090;DHT22;23904;52.322;10.232;2023-05-07T11:20:17;14.60;99.90
38090;DHT22;23904;52.322;10.232;2023-05-07T11:22:43;14.50;99.90
38090;DHT22;23904;52.322;10.232;2023-05-07T11:25:09;14.40;99.90
38090;DHT22;23904;52.322;10.232;2023-05-07T11:27:34;14.20;99.90
38090;DHT22;23904;52.322;10.232;2023-05-07T11:30:00;14.20;99.90
38090;DHT22;23904;52.322;10.232;2023-05-07T11:32:31;14.10;99.90
38090;DHT22;23904;52.322;10.232;2023-05-07T11:34:58;14.10;99.90
38090;DHT22;23904;52.322;10.232;2023-05-07T11:37:26;14.20;99.90
38090;DHT22;23904;52.322;10.232;2023-05-07T11:40:09;14.10;99.90
38090;DHT22;23904;52.322;10.232;2023-05-07T11:42:40;14.10;99.90
38090;DHT22;23904;52.322;10.232;2023-05-07T11:45:08;14.00;99.90
38090;DHT22;23904;52.322;10.232;2023-05-07T11:47:34;13.90;99.90
38090;DHT22;23904;52.322;10.232;2023-05-07T11:50:05;14.20;99.90
38090;DHT22;23904;52.322;10.232;2023-05-07T11:52:33;14.40;99.90
38090;DHT22;23904;52.322;10.232;2023-05-07T11:55:00;14.50;99.90
38090;DHT22;23904;52.322;10.232;2023-05-07T11:57:27;14.70;99.90
38090;DHT22;23904;52.322;10.232;2023-05-07T11:59:57;14.80;99.90
38090;DHT22;23904;52.322;10.232;2023-05-07T12:02:24;14.80;99.90
38090;DHT22;23904;52.322;10.232;2023-05-07T12:04:51;14.90;99.90
38090;DHT22;23904;52.322;10.232;2023-05-07T12:07:17;15.00;99.90
38090;DHT22;23904;52.322;10.232;2023-05-07T12:09:44;15.20;99.90
38090;DHT22;23904;52.322;10.232;2023-05-07T12:12:11;15.30;99.90
38090;DHT22;23904;52.322;10.232;2023-05-07T12:14:41;15.60;99.90
38090;DHT22;23904;52.322;10.232;2023-05-07T12:17:08;15.80;99.90
38090;DHT22;23904;52.322;10.232;2023-05-07T12:19:35;16.00;99.90
38090;DHT22;23904;52.322;10.232;2023-05-07T12:22:02;15.90;99.90
38090;DHT22;23904;52.322;10.232;2023-05-07T12:24:28;15.90;99.90
38090;DHT22;23904;52.322;10.232;2023-05-07T12:26:54;15.80;99.90
38090;DHT22;23904;52.322;10.232;2023-05-07T12:29:23;15.70;99.90
38090;DHT22;23904;52.322;10.232;2023-05-07T12:31:50;15.80;99.90
38090;DHT22;23904;52.322;10.232;2023-05-07T12:34:15;15.70;99.90
38090;DHT22;23904;52.322;10.232;2023-05-07T12:36:41;15.70;99.90
38090;DHT22;23904;52.322;10.232;2023-05-07T12:39:08;15.80;99.90
38090;DHT22;23904;52.322;10.232;2023-05-07T12:41:56;15.60;99.90
38090;DHT22;23904;52.322;10.232;2023-05-07T12:44:30;15.40;99.90
38090;DHT22;23904;52.322;10.232;2023-05-07T12:46:57;15.10;99.90
38090;DHT22;23904;52.322;10.232;2023-05-07T12:49:23;15.00;99.90
38090;DHT22;23904;52.322;10.232;2023-05-07T12:51:50;14.90;99.90
38090;DHT22;23904;52.322;10.232;2023-05-07T12:54:32;14.80;99.90
38090;DHT22;23904;52.322;10.232;2023-05-07T12:57:08;14.80;99.90
38090;DHT22;23904;52.322;10.232;2023-05-07T12:59:39;14.70;99.90
38090;DHT22;23904;52.322;10.232;2023-05-07T13:02:06;14.60;99.90
38090;DHT22;23904;52.322;10.232;2023-05-07T13:04:32;14.50;99.90
38090;DHT22;23904;52.322;10.232;2023-05-07T13:06:59;14.60;99.90
38090;DHT22;23904;52.322;10.232;2023-05-07T13:09:25;14.80;99.90
38090;DHT22;23904;52.322;10.232;2023-05-07T13:11:50;14.70;99.90
38090;DHT22;23904;52.322;10.232;2023-05-07T13:14:16;14.60;99.90
38090;DHT22;23904;52.322;10.232;2023-05-07T13:16:42;14.50;99.90
38090;DHT22;23904;52.322;10.232;2023-05-07T13:19:07;14.60;99.90
38090;DHT22;23904;52.322;10.232;2023-05-07T13:21:33;14.70;99.90
38090;DHT22;23904;52.322;10.232;2023-05-07T13:23:58;14.90;99.90
38090;DHT22;23904;52.322;10.232;2023-05-07T13:26:25;15.00;99.90
38090;DHT22;23904;52.322;10.232;2023-05-07T13:28:51;14.90;99.90
38090;DHT22;23904;52.322;10.232;2023-05-07T13:31:19;15.00;99.90
38090;DHT22;23904;52.322;10.232;2023-05-07T13:33:46;15.00;99.90
38090;DHT22;23904;52.322;10.232;2023-05-07T13:36:12;14.90;99.90
38090;DHT22;23904;52.322;10.232;2023-05-07T13:38:38;14.90;99.90
38090;DHT22;23904;52.322;10.232;2023-05-07T13:41:04;15.10;99.90
38090;DHT22;23904;52.322;10.232;2023-05-07T13:43:30;15.40;99.90
38090;DHT22;23904;52.322;10.232;2023-05-07T13:45:57;15.50;99.90
38090;DHT22;23904;52.322;10.232;2023-05-07T13:48:22;15.30;99.90
38090;DHT22;23904;52.322;10.232;2023-05-07T13:50:48;15.20;99.90
38090;DHT22;23904;52.322;10.232;2023-05-07T13:53:13;15.30;99.90
38090;DHT22;23904;52.322;10.232;2023-05-07T13:55:40;15.50;99.90
38090;DHT22;23904;52.322;10.232;2023-05-07T13:58:06;15.50;99.90
38090;DHT22;23904;52.322;10.232;2023-05-07T14:00:31;15.40;99.90
38090;DHT22;23904;52.322;10.232;2023-05-07T14:02:57;15.40;99.90
38090;DHT22;23904;52.322;10.232;2023-05-07T14:05:23;15.60;99.90
38090;DHT22;23904;52.322;10.232;2023-05-07T14:07:51;15.60;99.90
38090;DHT22;23904;52.322;10.232;2023-05-07T14:10:17;15.70;99.90
38090;DHT22;23904;52.322;10.232;2023-05-07T14:12:44;15.60;99.90
38090;DHT22;23904;52.322;10.232;2023-05-07T14:15:10;15.40;99.90
38090;DHT22;23904;52.322;10.232;2023-05-07T14:17:36;15.10;99.90
38090;DHT22;23904;52.322;10.232;2023-05-07T14:20:02;15.10;99.90
38090;DHT22;23904;52.322;10.232;2023-05-07T14:22:28;15.10;99.90
38090;DHT22;23904;52.322;10.232;2023-05-07T14:24:54;15.30;99.90
38090;DHT22;23904;52.322;10.232;2023-05-07T14:27:20;15.40;99.90
38090;DHT22;23904;52.322;10.232;2023-05-07T14:29:46;15.30;99.90
38090;DHT22;23904;52.322;10.232;2023-05-07T14:32:19;15.20;99.90
38090;DHT22;23904;52.322;10.232;2023-05-07T14:34:45;15.20;99.90
38090;DHT22;23904;52.322;10.232;2023-05-07T14:37:11;15.30;99.90
38090;DHT22;23904;52.322;10.232;2023-05-07T14:39:38;15.20;99.90
38090;DHT22;23904;52.322;10.232;2023-05-07T14:42:06;15.20;99.90
38090;DHT22;23904;52.322;10.232;2023-05-07T14:44:36;15.00;99.90
38090;DHT22;23904;52.322;10.232;2023-05-07T14:47:01;15.00;99.90
38090;DHT22;23904;52.322;10.232;2023-05-07T14:49:27;15.10;99.90
38090;DHT22;23904;52.322;10.232;2023-05-07T14:51:53;14.90;99.90
38090;DHT22;23904;52.322;10.232;2023-05-07T14:54:19;14.70;99.90
38090;DHT22;23904;52.322;10.232;2023-05-07T14:56:45;14.60;99.90
38090;DHT22;23904;52.322;10.232;2023-05-07T14:59:10;14.60;99.90
38090;DHT22;23904;52.322;10.232;2023-05-07T15:01:36;14.70;99.90
38090;DHT22;23904;52.322;10.232;2023-05-07T15:04:05;14.80;99.90
38090;DHT22;23904;52.322;10.232;2023-05-07T15:06:31;14.80;99.90
38090;DHT22;23904;52.322;10.232;2023-05-07T15:08:57;14.80;99.90
38090;DHT22;23904;52.322;10.232;2023-05-07T15:11:23;14.80;99.90
38090;DHT22;23904;52.322;10.232;2023-05-07T15:13:49;14.80;99.90
38090;DHT22;23904;52.322;10.232;2023-05-07T15:16:15;14.80;99.90
38090;DHT22;23904;52.322;10.232;2023-05-07T15:18:40;14.70;99.90
38090;DHT22;23904;52.322;10.232;2023-05-07T15:21:06;14.70;99.90
38090;DHT22;23904;52.322;10.232;2023-05-07T15:23:32;14.60;99.90
38090;DHT22;23904;52.322;10.232;2023-05-07T15:26:01;14.60;99.90
38090;DHT22;23904;52.322;10.232;2023-05-07T15:28:27;14.70;99.90